| time (UTC) | temp F | wind direction | speed knots | gust knots | rain 1hr in | rain 24hr in | rain mn in | humidity % | barometer mb |
| 20260504194904 | 76 | 207 | 2.6 | 4.3 | 0.00 | 0.00 | 0.00 | 32 | 1013.0 |
| 20260504194142 | 76 | 208 | 2.6 | 4.3 | 0.00 | 0.00 | 0.00 | 31 | 1013.1 |
| 20260504193643 | 76 | 223 | 1.7 | 4.3 | 0.00 | 0.00 | 0.00 | 29 | 1013.3 |
| 20260504193142 | 76 | 226 | 1.7 | 5.2 | 0.00 | 0.00 | 0.00 | 32 | 1013.2 |
| 20260504192644 | 76 | 229 | 1.7 | 5.2 | 0.00 | 0.00 | 0.00 | 30 | 1013.3 |
| 20260504192144 | 75 | 165 | 1.7 | 6.1 | 0.00 | 0.00 | 0.00 | 29 | 1013.4 |
| 20260504191643 | 75 | 229 | 2.6 | 6.1 | 0.00 | 0.00 | 0.00 | 29 | 1013.4 |
| 20260504191144 | 76 | 229 | 1.7 | 4.3 | 0.00 | 0.00 | 0.00 | 29 | 1013.6 |
| 20260504190643 | 76 | 211 | 1.7 | 3.5 | 0.00 | 0.00 | 0.00 | 32 | 1013.6 |
| 20260504190137 | 75 | 221 | 1.7 | 4.3 | 0.00 | 0.00 | 0.00 | 32 | 1013.6 |
| 20260504185630 | 75 | 222 | 1.7 | 4.3 | 0.00 | 0.00 | 0.00 | 30 | 1013.6 |
| 20260504185125 | 76 | 175 | 2.6 | 4.3 | 0.00 | 0.00 | 0.00 | 30 | 1013.6 |
| 20260504184619 | 76 | 240 | 2.6 | 5.2 | 0.00 | 0.00 | 0.00 | 29 | 1013.8 |
| 20260504184113 | 76 | 219 | 2.6 | 7.0 | 0.00 | 0.00 | 0.00 | 30 | 1013.8 |
| 20260504183606 | 77 | 189 | 1.7 | 6.1 | 0.00 | 0.00 | 0.00 | 28 | 1013.8 |
| 20260504183100 | 77 | 310 | 2.6 | 5.2 | 0.00 | 0.00 | 0.00 | 29 | 1013.9 |
| 20260504182553 | 77 | 241 | 1.7 | 4.3 | 0.00 | 0.00 | 0.00 | 28 | 1013.9 |
| 20260504182049 | 77 | 196 | 1.7 | 3.5 | 0.00 | 0.00 | 0.00 | 30 | 1013.9 |
| 20260504181800 | 77 | 216 | 1.7 | 2.6 | 0.00 | 0.00 | 0.00 | 31 | 1013.9 |
| 20260504181037 | 76 | 200 | 2.6 | 5.2 | 0.00 | 0.00 | 0.00 | 29 | 1014.0 |
| 20260504180529 | 76 | 192 | 2.6 | 5.2 | 0.00 | 0.00 | 0.00 | 28 | 1014.2 |
| 20260504180024 | 76 | 205 | 1.7 | 4.3 | 0.00 | 0.00 | 0.00 | 28 | 1014.1 |
| 20260504175519 | 76 | 271 | 1.7 | 4.3 | 0.00 | 0.00 | 0.00 | 28 | 1014.2 |
| 20260504175013 | 76 | 244 | 1.7 | 5.2 | 0.00 | 0.00 | 0.00 | 30 | 1014.0 |
| 20260504174220 | 76 | 238 | 1.7 | 4.3 | 0.00 | 0.00 | 0.00 | 30 | 1014.3 |
| 20260504173718 | 75 | 213 | 1.7 | 4.3 | 0.00 | 0.00 | 0.00 | 29 | 1014.4 |
| 20260504172949 | 75 | 237 | 1.7 | 4.3 | 0.00 | 0.00 | 0.00 | 29 | 1014.5 |
| 20260504172443 | 75 | 202 | 1.7 | 4.3 | 0.00 | 0.00 | 0.00 | 33 | 1014.5 |
| 20260504171937 | 75 | 200 | 1.7 | 4.3 | 0.00 | 0.00 | 0.00 | 29 | 1014.6 |
| 20260504171431 | 75 | 191 | 1.7 | 3.5 | 0.00 | 0.00 | 0.00 | 32 | 1014.6 |
| 20260504170926 | 75 | 298 | 1.7 | 4.3 | 0.00 | 0.00 | 0.00 | 32 | 1014.6 |
| 20260504170418 | 75 | 329 | 1.7 | 5.2 | 0.00 | 0.00 | 0.00 | 34 | 1014.8 |
| 20260504160307 | 72 | 225 | 1.7 | 4.3 | 0.00 | 0.00 | 0.00 | 37 | 1015.7 |
| 20260504150700 | 70 | 209 | 0.9 | 2.6 | 0.00 | 0.00 | 0.00 | 45 | 1015.9 |
| 20260504150155 | 69 | 281 | 0.9 | 2.6 | 0.00 | 0.00 | 0.00 | 44 | 1016.0 |
| 20260504141150 | 65 | 244 | 0.9 | 2.6 | 0.00 | 0.00 | 0.00 | 51 | 1016.1 |
| 20260504140650 | 64 | 244 | 0.9 | 2.6 | 0.00 | 0.00 | 0.00 | 55 | 1016.2 |
| 20260504140236 | 64 | 246 | 0.9 | 1.7 | 0.00 | 0.00 | 0.00 | 55 | 1016.1 |
| 20260504130637 | 60 | 201 | 1.7 | 4.3 | 0.00 | 0.00 | 0.00 | 61 | 1016.5 |
| 20260504130132 | 59 | 246 | 1.7 | 4.3 | 0.00 | 0.00 | 0.00 | 62 | 1016.6 |
| 20260504110413 | 53 | 263 | 0.9 | 1.7 | 0.00 | 0.00 | 0.00 | 72 | 1016.9 |
| 20260504100530 | 51 | 264 | 0.9 | 1.7 | 0.00 | 0.00 | 0.00 | 78 | 1016.9 |
| 20260504081658 | 51 | 270 | 0.9 | 1.7 | 0.00 | 0.00 | 0.00 | 79 | 1017.2 |
| 20260504081424 | 51 | 270 | 0.9 | 1.7 | 0.00 | 0.00 | 0.00 | 79 | 1017.3 |
| 20260504080658 | 51 | 270 | 0.9 | 2.6 | 0.00 | 0.00 | 0.00 | 79 | 1017.2 |
| 20260504080416 | 51 | 270 | 1.7 | 2.6 | 0.00 | 0.00 | 0.00 | 78 | 1017.4 |
| 20260504070150 | 50 | 321 | 0.9 | 2.6 | 0.00 | 0.00 | 0.00 | 78 | 1017.5 |
| 20260504060147 | 50 | 342 | 0.9 | 2.6 | 0.00 | 0.00 | 0.00 | 75 | 1017.5 |
| 20260504050540 | 49 | 316 | 0.9 | 3.5 | 0.00 | 0.00 | 0.00 | 74 | 1017.4 |
| 20260504045529 | 47 | 248 | 0.9 | 2.6 | 0.00 | 0.00 | 0.00 | 74 | 1017.5 |
| 20260504045022 | 47 | 247 | 0.0 | 2.6 | 0.00 | 0.00 | 0.00 | 74 | 1017.5 |
| 20260504044738 | 46 | 246 | 0.0 | 2.6 | 0.00 | 0.00 | 0.00 | 75 | 1017.6 |
| 20260504044011 | 46 | 246 | 0.0 | 2.6 | 0.00 | 0.00 | 0.00 | 76 | 1017.6 |
| 20260504043727 | 46 | 233 | 0.0 | 1.7 | 0.00 | 0.00 | 0.00 | 78 | 1017.6 |
| 20260504042959 | 46 | 229 | 0.0 | 0.0 | 0.00 | 0.00 | 0.00 | 78 | 1017.5 |
| 20260504042453 | 46 | 229 | 0.0 | 0.0 | 0.00 | 0.00 | 0.00 | 78 | 1017.6 |
| 20260504041947 | 46 | 229 | 0.0 | 0.0 | 0.00 | 0.00 | 0.00 | 77 | 1017.5 |
| 20260504041441 | 46 | 229 | 0.0 | 0.0 | 0.00 | 0.00 | 0.00 | 76 | 1017.7 |
| 20260504040935 | 46 | 229 | 0.0 | 0.0 | 0.00 | 0.00 | 0.00 | 75 | 1017.5 |
| 20260504040428 | 46 | 229 | 0.0 | 0.0 | 0.00 | 0.00 | 0.00 | 75 | 1017.5 |
| 20260504035925 | 46 | 229 | 0.0 | 0.0 | 0.00 | 0.00 | 0.00 | 76 | 1017.6 |
| 20260504035420 | 46 | 229 | 0.0 | 0.0 | 0.00 | 0.00 | 0.00 | 76 | 1017.5 |
| 20260504034913 | 47 | 229 | 0.0 | 0.0 | 0.00 | 0.00 | 0.00 | 76 | 1017.5 |
| 20260504034407 | 47 | 229 | 0.0 | 0.0 | 0.00 | 0.00 | 0.00 | 75 | 1017.5 |
| 20260504033900 | 47 | 229 | 0.0 | 0.0 | 0.00 | 0.00 | 0.00 | 76 | 1017.4 |
| 20260504033358 | 47 | 229 | 0.0 | 0.0 | 0.00 | 0.00 | 0.00 | 75 | 1017.3 |
| 20260504032859 | 47 | 229 | 0.0 | 0.0 | 0.00 | 0.00 | 0.00 | 74 | 1017.4 |
| 20260504032619 | 47 | 229 | 0.0 | 0.0 | 0.00 | 0.00 | 0.00 | 74 | 1017.4 |
| 20260504031859 | 47 | 229 | 0.0 | 0.0 | 0.00 | 0.00 | 0.00 | 73 | 1017.3 |
| 20260504031621 | 47 | 229 | 0.0 | 0.0 | 0.00 | 0.00 | 0.00 | 74 | 1017.4 |
| 20260504030857 | 47 | 229 | 0.0 | 0.0 | 0.00 | 0.00 | 0.00 | 73 | 1017.3 |
| 20260504030359 | 47 | 229 | 0.0 | 0.0 | 0.00 | 0.00 | 0.00 | 73 | 1017.4 |
| 20260504025858 | 47 | 229 | 0.0 | 0.0 | 0.00 | 0.00 | 0.00 | 71 | 1017.3 |
| 20260504025355 | 47 | 229 | 0.0 | 0.0 | 0.00 | 0.00 | 0.00 | 71 | 1017.3 |
| 20260504024855 | 47 | 229 | 0.0 | 0.0 | 0.00 | 0.00 | 0.00 | 75 | 1017.4 |
| 20260504024354 | 47 | 229 | 0.0 | 0.0 | 0.00 | 0.00 | 0.00 | 74 | 1017.3 |
| 20260504024121 | 47 | 229 | 0.0 | 0.0 | 0.00 | 0.00 | 0.00 | 71 | 1017.4 |
| 20260504023612 | 47 | 229 | 0.0 | 0.0 | 0.00 | 0.00 | 0.00 | 71 | 1017.4 |
| 20260504022855 | 48 | 229 | 0.0 | 0.0 | 0.00 | 0.00 | 0.00 | 71 | 1017.4 |
| 20260504022349 | 48 | 229 | 0.0 | 0.0 | 0.00 | 0.00 | 0.00 | 72 | 1017.4 |
| 20260504021849 | 48 | 229 | 0.0 | 0.0 | 0.00 | 0.00 | 0.00 | 72 | 1017.4 |
| 20260504021352 | 48 | 229 | 0.0 | 0.0 | 0.00 | 0.00 | 0.00 | 71 | 1017.4 |
| 20260504020850 | 48 | 229 | 0.0 | 0.0 | 0.00 | 0.00 | 0.00 | 71 | 1017.5 |
| 20260504020350 | 48 | 229 | 0.0 | 0.0 | 0.00 | 0.00 | 0.00 | 70 | 1017.3 |
| 20260504020108 | 48 | 229 | 0.0 | 0.0 | 0.00 | 0.00 | 0.00 | 70 | 1017.3 |
| 20260504015350 | 49 | 229 | 0.0 | 0.0 | 0.00 | 0.00 | 0.00 | 70 | 1017.3 |
| 20260504014851 | 49 | 229 | 0.0 | 0.0 | 0.00 | 0.00 | 0.00 | 73 | 1017.2 |
| 20260504014349 | 49 | 229 | 0.0 | 0.0 | 0.00 | 0.00 | 0.00 | 71 | 1017.2 |
| 20260504013850 | 49 | 229 | 0.0 | 0.0 | 0.00 | 0.00 | 0.00 | 71 | 1017.1 |
| 20260504013606 | 49 | 229 | 0.0 | 0.0 | 0.00 | 0.00 | 0.00 | 69 | 1017.0 |
| 20260504013327 | 49 | 229 | 0.0 | 0.0 | 0.00 | 0.00 | 0.00 | 67 | 1017.1 |
| 20260504012345 | 50 | 229 | 0.0 | 0.0 | 0.00 | 0.00 | 0.00 | 67 | 1017.0 |
| 20260504011844 | 50 | 229 | 0.0 | 0.0 | 0.00 | 0.00 | 0.00 | 66 | 1017.0 |
| 20260504011343 | 50 | 229 | 0.0 | 0.0 | 0.00 | 0.00 | 0.00 | 65 | 1016.9 |
| 20260504010842 | 51 | 229 | 0.0 | 0.0 | 0.00 | 0.00 | 0.00 | 65 | 1016.9 |
| 20260504010342 | 51 | 229 | 0.0 | 0.0 | 0.00 | 0.00 | 0.00 | 65 | 1016.9 |
| 20260504005839 | 51 | 229 | 0.0 | 0.0 | 0.00 | 0.00 | 0.00 | 62 | 1016.9 |
| 20260504005339 | 52 | 229 | 0.0 | 0.0 | 0.00 | 0.00 | 0.00 | 61 | 1016.9 |
| 20260504004839 | 52 | 229 | 0.0 | 0.0 | 0.00 | 0.00 | 0.00 | 61 | 1016.9 |
| 20260504004339 | 53 | 229 | 0.0 | 0.0 | 0.00 | 0.00 | 0.00 | 61 | 1016.8 |
| 20260504003841 | 53 | 229 | 0.0 | 0.0 | 0.00 | 0.00 | 0.00 | 60 | 1016.8 |
| 20260504003339 | 53 | 229 | 0.0 | 0.0 | 0.00 | 0.00 | 0.00 | 58 | 1016.8 |
| 20260504003059 | 54 | 229 | 0.0 | 0.0 | 0.00 | 0.00 | 0.00 | 55 | 1016.7 |
| 20260504002339 | 55 | 229 | 0.0 | 0.0 | 0.00 | 0.00 | 0.00 | 54 | 1016.6 |
| 20260504001834 | 55 | 229 | 0.0 | 0.0 | 0.00 | 0.00 | 0.00 | 53 | 1016.6 |
| 20260504001328 | 56 | 229 | 0.0 | 0.0 | 0.00 | 0.00 | 0.00 | 51 | 1016.4 |
| 20260504000822 | 56 | 229 | 0.0 | 0.0 | 0.00 | 0.00 | 0.00 | 48 | 1016.4 |
| 20260504000316 | 57 | 229 | 0.0 | 0.0 | 0.00 | 0.00 | 0.00 | 45 | 1016.3 |
| 20260503235809 | 58 | 229 | 0.0 | 0.0 | 0.00 | 0.00 | 0.00 | 44 | 1016.3 |
| 20260503235304 | 58 | 229 | 0.0 | 0.0 | 0.00 | 0.00 | 0.00 | 44 | 1016.3 |
| 20260503234758 | 59 | 229 | 0.0 | 0.0 | 0.00 | 0.00 | 0.00 | 41 | 1016.3 |
| 20260503234252 | 60 | 229 | 0.0 | 0.0 | 0.00 | 0.00 | 0.00 | 41 | 1016.3 |
| 20260503233745 | 60 | 229 | 0.0 | 0.0 | 0.00 | 0.00 | 0.00 | 38 | 1016.2 |
| 20260503233503 | 60 | 229 | 0.0 | 0.9 | 0.00 | 0.00 | 0.00 | 41 | 1016.2 |
| 20260503232733 | 61 | 229 | 0.0 | 0.9 | 0.00 | 0.00 | 0.00 | 38 | 1016.2 |
| 20260503232452 | 61 | 229 | 0.0 | 1.7 | 0.00 | 0.00 | 0.00 | 36 | 1016.2 |
| 20260503231722 | 62 | 229 | 0.9 | 1.7 | 0.00 | 0.00 | 0.00 | 36 | 1016.1 |
| 20260503231215 | 62 | 229 | 0.9 | 1.7 | 0.00 | 0.00 | 0.00 | 35 | 1016.1 |
| 20260503230939 | 62 | 229 | 0.0 | 0.9 | 0.00 | 0.00 | 0.00 | 34 | 1016.1 |
| 20260503230204 | 62 | 229 | 0.0 | 0.9 | 0.00 | 0.00 | 0.00 | 37 | 1016.1 |
| 20260503225658 | 62 | 229 | 0.0 | 1.7 | 0.00 | 0.00 | 0.00 | 35 | 1016.0 |
| 20260503225152 | 63 | 229 | 0.9 | 1.7 | 0.00 | 0.00 | 0.00 | 35 | 1016.1 |
| 20260503224726 | 63 | 229 | 0.9 | 2.6 | 0.00 | 0.00 | 0.00 | 33 | 1016.1 |
| 20260503223732 | 63 | 229 | 0.9 | 2.6 | 0.00 | 0.00 | 0.00 | 32 | 1016.1 |
| 20260503222622 | 63 | 0 | 0.9 | 2.6 | 0.00 | 0.00 | 0.00 | 32 | 1016.0 |
| 20260503222115 | 63 | 0 | 0.9 | 4.3 | 0.00 | 0.00 | 0.00 | 33 | 1016.1 |
| 20260503221610 | 63 | 355 | 0.9 | 4.3 | 0.00 | 0.00 | 0.00 | 32 | 1016.1 |
| 20260503221104 | 63 | 0 | 0.9 | 3.5 | 0.00 | 0.00 | 0.00 | 31 | 1016.2 |
| 20260503220558 | 63 | 0 | 0.9 | 3.5 | 0.00 | 0.00 | 0.00 | 32 | 1016.1 |
| 20260503220052 | 63 | 274 | 0.9 | 1.7 | 0.00 | 0.00 | 0.00 | 33 | 1016.3 |
| 20260503220028 | 64 | 275 | 0.9 | 2.6 | 0.00 | 0.00 | 0.00 | 31 | 1016.1 |
| 20260503215040 | 64 | 274 | 0.9 | 3.5 | 0.00 | 0.00 | 0.00 | 32 | 1016.1 |
| 20260503214539 | 64 | 271 | 0.9 | 3.5 | 0.00 | 0.00 | 0.00 | 32 | 1016.1 |
| 20260503214039 | 64 | 315 | 0.9 | 2.6 | 0.00 | 0.00 | 0.00 | 32 | 1016.1 |
| 20260503213756 | 64 | 323 | 0.9 | 4.3 | 0.00 | 0.00 | 0.00 | 32 | 1015.9 |
| 20260503213300 | 64 | 36 | 1.7 | 4.3 | 0.00 | 0.00 | 0.00 | 31 | 1016.1 |
| 20260503212538 | 64 | 185 | 1.7 | 3.5 | 0.00 | 0.00 | 0.00 | 32 | 1016.0 |
| 20260503212036 | 64 | 212 | 1.7 | 4.3 | 0.00 | 0.00 | 0.00 | 31 | 1016.0 |
| 20260503211537 | 64 | 217 | 0.9 | 4.3 | 0.00 | 0.00 | 0.00 | 32 | 1016.1 |
| 20260503211037 | 64 | 240 | 0.9 | 2.6 | 0.00 | 0.00 | 0.00 | 35 | 1016.0 |
| 20260503210534 | 64 | 240 | 0.9 | 2.6 | 0.00 | 0.00 | 0.00 | 32 | 1016.0 |
| 20260503210035 | 64 | 209 | 0.9 | 1.7 | 0.00 | 0.00 | 0.00 | 31 | 1016.0 |
| 20260503205534 | 64 | 290 | 0.9 | 3.5 | 0.00 | 0.00 | 0.00 | 34 | 1015.9 |
| 20260503205035 | 64 | 291 | 0.9 | 3.5 | 0.00 | 0.00 | 0.00 | 32 | 1015.9 |
| 20260503204535 | 64 | 226 | 1.7 | 7.0 | 0.00 | 0.00 | 0.00 | 33 | 1016.0 |
| 20260503204035 | 64 | 167 | 1.7 | 7.0 | 0.00 | 0.00 | 0.00 | 33 | 1015.9 |
| 20260503203531 | 65 | 232 | 0.9 | 7.0 | 0.00 | 0.00 | 0.00 | 33 | 1015.7 |
| 20260503203031 | 65 | 308 | 0.9 | 4.3 | 0.00 | 0.00 | 0.00 | 33 | 1015.8 |
| 20260503202532 | 65 | 0 | 1.7 | 4.3 | 0.00 | 0.00 | 0.00 | 31 | 1016.0 |
| 20260503202248 | 65 | 226 | 1.7 | 5.2 | 0.00 | 0.00 | 0.00 | 33 | 1016.0 |
| 20260503201530 | 65 | 208 | 1.7 | 5.2 | 0.00 | 0.00 | 0.00 | 30 | 1016.0 |
| 20260503201031 | 65 | 13 | 1.7 | 4.3 | 0.00 | 0.00 | 0.00 | 30 | 1016.1 |
| 20260503200530 | 65 | 152 | 1.7 | 8.7 | 0.00 | 0.00 | 0.00 | 32 | 1016.3 |
| 20260503200255 | 65 | 314 | 1.7 | 8.7 | 0.00 | 0.00 | 0.00 | 31 | 1016.2 |
| 20260503195531 | 65 | 234 | 1.7 | 4.3 | 0.00 | 0.00 | 0.00 | 29 | 1016.1 |
| 20260503195255 | 66 | 317 | 0.9 | 3.5 | 0.00 | 0.00 | 0.00 | 35 | 1016.3 |